Terminal Aerodrome Forecast
Issued by NWS

Home | Current Version | Previous Version | Text Only | Print | Product List | Glossary On
Versions: 1 2 3 4 5 6 7 8 9 10 11 12 13 14 15 16 17 18 19 20 21 22 23 24 25 26 27 28 29 30 31 32 33 34 35 36 37 38 39 40 41 42 43 44 45 46 47 48 49 50
000
FTUS45 KBOU 260532
TAFAPA
TAF
KAPA 260532Z 2606/2706 19009KT P6SM VCTS SCT050CB BKN090
      TEMPO 2606/2607 5SM TSRA BKN050CB
     FM260900 VRB05KT P6SM VCFG SCT009 BKN015
     FM261600 08006KT P6SM SCT015 SCT110 SCT200
     FM261900 VRB05KT P6SM SCT090 BKN150
      TEMPO 2621/2624 VRB20G32KT -TSRA BKN050CB
     FM270000 04007KT P6SM VCTS SCT060CB BKN100
      TEMPO 2700/2704 VRB20G40KT 3SM TSRA BKN050CB=

USA.gov is the U.S. government's official web portal to all federal, state and local government web resources and services.